sensor_id;sensor_type;location;lat;lon;timestamp;temperature;humidity
13433;DHT22;6789;47.678;9.158;2023-03-03T00:02:53;4.20;99.90
13433;DHT22;6789;47.678;9.158;2023-03-03T00:07:46;4.20;99.90
13433;DHT22;6789;47.678;9.158;2023-03-03T00:12:46;4.20;99.90
13433;DHT22;6789;47.678;9.158;2023-03-03T00:17:39;4.20;99.90
13433;DHT22;6789;47.678;9.158;2023-03-03T00:22:35;4.10;99.90
13433;DHT22;6789;47.678;9.158;2023-03-03T00:27:34;4.00;99.90
13433;DHT22;6789;47.678;9.158;2023-03-03T00:32:37;4.00;99.90
13433;DHT22;6789;47.678;9.158;2023-03-03T00:37:34;4.00;99.90
13433;DHT22;6789;47.678;9.158;2023-03-03T00:42:26;4.00;99.90
13433;DHT22;6789;47.678;9.158;2023-03-03T00:47:31;4.00;99.90
13433;DHT22;6789;47.678;9.158;2023-03-03T00:52:28;4.10;99.90
13433;DHT22;6789;47.678;9.158;2023-03-03T00:57:19;4.10;99.90
13433;DHT22;6789;47.678;9.158;2023-03-03T01:02:11;4.00;99.90
13433;DHT22;6789;47.678;9.158;2023-03-03T01:07:03;4.00;99.90
13433;DHT22;6789;47.678;9.158;2023-03-03T01:11:55;3.90;99.90
13433;DHT22;6789;47.678;9.158;2023-03-03T01:16:46;3.90;99.90
13433;DHT22;6789;47.678;9.158;2023-03-03T01:21:38;3.90;99.90
13433;DHT22;6789;47.678;9.158;2023-03-03T01:26:30;4.00;99.90
13433;DHT22;6789;47.678;9.158;2023-03-03T01:31:22;4.10;99.90
13433;DHT22;6789;47.678;9.158;2023-03-03T01:36:13;4.00;99.90
13433;DHT22;6789;47.678;9.158;2023-03-03T01:41:05;3.90;99.90
13433;DHT22;6789;47.678;9.158;2023-03-03T01:51:09;3.80;99.90
13433;DHT22;6789;47.678;9.158;2023-03-03T01:56:10;3.80;99.90
13433;DHT22;6789;47.678;9.158;2023-03-03T02:01:05;3.80;99.90
13433;DHT22;6789;47.678;9.158;2023-03-03T02:06:07;3.90;99.90
13433;DHT22;6789;47.678;9.158;2023-03-03T02:11:26;3.90;99.90
13433;DHT22;6789;47.678;9.158;2023-03-03T02:16:27;3.90;99.90
13433;DHT22;6789;47.678;9.158;2023-03-03T02:21:58;3.80;99.90
13433;DHT22;6789;47.678;9.158;2023-03-03T02:27:24;3.80;99.90
13433;DHT22;6789;47.678;9.158;2023-03-03T02:32:38;3.80;99.90
13433;DHT22;6789;47.678;9.158;2023-03-03T02:37:29;3.80;99.90
13433;DHT22;6789;47.678;9.158;2023-03-03T02:42:25;3.80;99.90
13433;DHT22;6789;47.678;9.158;2023-03-03T02:47:20;3.90;99.90
13433;DHT22;6789;47.678;9.158;2023-03-03T02:52:11;3.80;99.90
13433;DHT22;6789;47.678;9.158;2023-03-03T02:57:05;3.80;99.90
13433;DHT22;6789;47.678;9.158;2023-03-03T03:01:58;3.90;99.90
13433;DHT22;6789;47.678;9.158;2023-03-03T03:06:50;3.90;99.90
13433;DHT22;6789;47.678;9.158;2023-03-03T03:11:43;3.90;99.90
13433;DHT22;6789;47.678;9.158;2023-03-03T03:16:35;3.90;99.90
13433;DHT22;6789;47.678;9.158;2023-03-03T03:21:28;4.00;99.90
13433;DHT22;6789;47.678;9.158;2023-03-03T03:26:20;4.00;99.90
13433;DHT22;6789;47.678;9.158;2023-03-03T03:31:12;4.00;99.90
13433;DHT22;6789;47.678;9.158;2023-03-03T03:36:04;4.00;99.90
13433;DHT22;6789;47.678;9.158;2023-03-03T03:40:56;4.00;99.90
13433;DHT22;6789;47.678;9.158;2023-03-03T03:45:48;4.00;99.90
13433;DHT22;6789;47.678;9.158;2023-03-03T03:50:40;4.10;99.90
13433;DHT22;6789;47.678;9.158;2023-03-03T03:55:32;4.10;99.90
13433;DHT22;6789;47.678;9.158;2023-03-03T04:00:24;4.10;99.90
13433;DHT22;6789;47.678;9.158;2023-03-03T04:05:16;3.90;99.90
13433;DHT22;6789;47.678;9.158;2023-03-03T04:10:09;3.90;99.90
13433;DHT22;6789;47.678;9.158;2023-03-03T04:15:01;3.80;99.90
13433;DHT22;6789;47.678;9.158;2023-03-03T04:19:53;3.90;99.90
13433;DHT22;6789;47.678;9.158;2023-03-03T04:24:45;3.80;99.90
13433;DHT22;6789;47.678;9.158;2023-03-03T04:29:38;3.90;99.90
13433;DHT22;6789;47.678;9.158;2023-03-03T04:34:31;3.80;99.90
13433;DHT22;6789;47.678;9.158;2023-03-03T04:39:24;3.70;99.90
13433;DHT22;6789;47.678;9.158;2023-03-03T04:44:37;3.70;99.90
13433;DHT22;6789;47.678;9.158;2023-03-03T04:50:03;3.70;99.90
13433;DHT22;6789;47.678;9.158;2023-03-03T04:54:55;3.80;99.90
13433;DHT22;6789;47.678;9.158;2023-03-03T04:59:47;3.90;99.90
13433;DHT22;6789;47.678;9.158;2023-03-03T05:04:38;4.00;99.90
13433;DHT22;6789;47.678;9.158;2023-03-03T05:09:36;3.90;99.90
13433;DHT22;6789;47.678;9.158;2023-03-03T05:15:03;3.80;99.90
13433;DHT22;6789;47.678;9.158;2023-03-03T05:20:16;3.80;99.90
13433;DHT22;6789;47.678;9.158;2023-03-03T05:25:10;3.80;99.90
13433;DHT22;6789;47.678;9.158;2023-03-03T05:30:07;3.80;99.90
13433;DHT22;6789;47.678;9.158;2023-03-03T05:35:00;3.90;99.90
13433;DHT22;6789;47.678;9.158;2023-03-03T05:39:52;3.90;99.90
13433;DHT22;6789;47.678;9.158;2023-03-03T05:44:58;3.90;99.90
13433;DHT22;6789;47.678;9.158;2023-03-03T05:49:55;4.00;99.90
13433;DHT22;6789;47.678;9.158;2023-03-03T05:55:01;3.90;99.90
13433;DHT22;6789;47.678;9.158;2023-03-03T05:59:53;4.00;99.90
13433;DHT22;6789;47.678;9.158;2023-03-03T06:04:53;4.00;99.90
13433;DHT22;6789;47.678;9.158;2023-03-03T06:09:54;4.10;99.90
13433;DHT22;6789;47.678;9.158;2023-03-03T06:15:00;4.00;99.90
13433;DHT22;6789;47.678;9.158;2023-03-03T06:19:56;4.00;99.90
13433;DHT22;6789;47.678;9.158;2023-03-03T06:24:52;4.00;99.90
13433;DHT22;6789;47.678;9.158;2023-03-03T06:29:45;4.00;99.90
13433;DHT22;6789;47.678;9.158;2023-03-03T06:34:38;4.10;99.90
13433;DHT22;6789;47.678;9.158;2023-03-03T06:39:32;4.10;99.90
13433;DHT22;6789;47.678;9.158;2023-03-03T06:44:24;4.20;99.90
13433;DHT22;6789;47.678;9.158;2023-03-03T06:49:20;4.20;99.90
13433;DHT22;6789;47.678;9.158;2023-03-03T06:54:15;4.30;99.90
13433;DHT22;6789;47.678;9.158;2023-03-03T06:59:20;4.30;99.90
13433;DHT22;6789;47.678;9.158;2023-03-03T07:04:28;4.20;99.90
13433;DHT22;6789;47.678;9.158;2023-03-03T07:09:37;4.30;99.90
13433;DHT22;6789;47.678;9.158;2023-03-03T07:14:48;4.40;99.90
13433;DHT22;6789;47.678;9.158;2023-03-03T07:20:00;4.50;99.90
13433;DHT22;6789;47.678;9.158;2023-03-03T07:25:19;4.40;99.90
13433;DHT22;6789;47.678;9.158;2023-03-03T07:30:29;4.60;99.90
13433;DHT22;6789;47.678;9.158;2023-03-03T07:35:40;4.60;99.90
13433;DHT22;6789;47.678;9.158;2023-03-03T07:40:38;4.60;99.90
13433;DHT22;6789;47.678;9.158;2023-03-03T07:51:18;4.70;99.90
13433;DHT22;6789;47.678;9.158;2023-03-03T07:56:39;4.70;99.90
13433;DHT22;6789;47.678;9.158;2023-03-03T08:01:46;4.80;99.90
13433;DHT22;6789;47.678;9.158;2023-03-03T08:07:01;5.00;99.90
13433;DHT22;6789;47.678;9.158;2023-03-03T08:12:36;5.10;99.90
13433;DHT22;6789;47.678;9.158;2023-03-03T08:17:47;5.20;99.90
13433;DHT22;6789;47.678;9.158;2023-03-03T08:22:54;5.20;99.90
13433;DHT22;6789;47.678;9.158;2023-03-03T08:27:47;5.30;99.90
13433;DHT22;6789;47.678;9.158;2023-03-03T08:32:43;5.30;99.90
13433;DHT22;6789;47.678;9.158;2023-03-03T08:37:36;5.30;99.90
13433;DHT22;6789;47.678;9.158;2023-03-03T08:42:42;5.40;99.90
13433;DHT22;6789;47.678;9.158;2023-03-03T08:47:48;5.40;99.90
13433;DHT22;6789;47.678;9.158;2023-03-03T08:52:55;5.30;99.90
13433;DHT22;6789;47.678;9.158;2023-03-03T08:58:03;5.30;99.90
13433;DHT22;6789;47.678;9.158;2023-03-03T09:03:10;5.50;99.90
13433;DHT22;6789;47.678;9.158;2023-03-03T09:08:16;5.60;99.90
13433;DHT22;6789;47.678;9.158;2023-03-03T09:13:22;5.60;99.90
13433;DHT22;6789;47.678;9.158;2023-03-03T09:18:19;5.60;99.90
13433;DHT22;6789;47.678;9.158;2023-03-03T09:23:30;5.70;99.90
13433;DHT22;6789;47.678;9.158;2023-03-03T09:28:39;5.90;99.90
13433;DHT22;6789;47.678;9.158;2023-03-03T09:33:47;6.20;99.90
13433;DHT22;6789;47.678;9.158;2023-03-03T09:38:59;6.50;99.90
13433;DHT22;6789;47.678;9.158;2023-03-03T09:49:33;7.00;99.90
13433;DHT22;6789;47.678;9.158;2023-03-03T09:55:24;7.30;99.90
13433;DHT22;6789;47.678;9.158;2023-03-03T10:01:38;7.30;99.90
13433;DHT22;6789;47.678;9.158;2023-03-03T10:12:09;7.90;99.90
13433;DHT22;6789;47.678;9.158;2023-03-03T10:23:19;8.20;99.90
13433;DHT22;6789;47.678;9.158;2023-03-03T10:29:05;8.00;99.90
13433;DHT22;6789;47.678;9.158;2023-03-03T10:40:49;8.60;99.90
13433;DHT22;6789;47.678;9.158;2023-03-03T10:46:09;8.60;99.90
13433;DHT22;6789;47.678;9.158;2023-03-03T10:57:25;9.00;99.90
13433;DHT22;6789;47.678;9.158;2023-03-03T11:03:13;9.00;99.90
13433;DHT22;6789;47.678;9.158;2023-03-03T11:08:38;9.10;99.90
13433;DHT22;6789;47.678;9.158;2023-03-03T11:20:00;9.00;99.90
13433;DHT22;6789;47.678;9.158;2023-03-03T11:36:33;8.80;99.90
13433;DHT22;6789;47.678;9.158;2023-03-03T11:47:37;8.80;99.90
13433;DHT22;6789;47.678;9.158;2023-03-03T11:58:26;9.00;99.90
13433;DHT22;6789;47.678;9.158;2023-03-03T12:03:58;8.90;99.90
13433;DHT22;6789;47.678;9.158;2023-03-03T12:09:29;9.00;99.90
13433;DHT22;6789;47.678;9.158;2023-03-03T12:15:03;8.80;99.90
13433;DHT22;6789;47.678;9.158;2023-03-03T12:25:56;9.20;99.90
13433;DHT22;6789;47.678;9.158;2023-03-03T12:31:19;8.80;99.90
13433;DHT22;6789;47.678;9.158;2023-03-03T12:37:00;9.10;99.90
13433;DHT22;6789;47.678;9.158;2023-03-03T12:42:37;8.80;99.90
13433;DHT22;6789;47.678;9.158;2023-03-03T12:48:00;8.40;99.90
13433;DHT22;6789;47.678;9.158;2023-03-03T12:53:32;8.60;99.90
13433;DHT22;6789;47.678;9.158;2023-03-03T12:58:55;8.80;99.90
13433;DHT22;6789;47.678;9.158;2023-03-03T13:10:37;8.60;99.90
13433;DHT22;6789;47.678;9.158;2023-03-03T13:16:09;7.90;99.90
13433;DHT22;6789;47.678;9.158;2023-03-03T13:26:59;8.50;99.90
13433;DHT22;6789;47.678;9.158;2023-03-03T13:32:18;8.70;99.90
13433;DHT22;6789;47.678;9.158;2023-03-03T13:37:38;8.90;99.90
13433;DHT22;6789;47.678;9.158;2023-03-03T13:42:52;9.10;99.90
13433;DHT22;6789;47.678;9.158;2023-03-03T13:53:59;9.40;99.90
13433;DHT22;6789;47.678;9.158;2023-03-03T13:59:35;9.50;99.90
13433;DHT22;6789;47.678;9.158;2023-03-03T14:05:00;9.60;99.90
13433;DHT22;6789;47.678;9.158;2023-03-03T14:16:03;9.90;99.90
13433;DHT22;6789;47.678;9.158;2023-03-03T14:21:33;9.70;99.90
13433;DHT22;6789;47.678;9.158;2023-03-03T14:26:52;9.30;99.90
13433;DHT22;6789;47.678;9.158;2023-03-03T14:32:02;9.40;99.90
13433;DHT22;6789;47.678;9.158;2023-03-03T14:37:29;9.60;99.90
13433;DHT22;6789;47.678;9.158;2023-03-03T14:42:55;9.50;99.90
13433;DHT22;6789;47.678;9.158;2023-03-03T14:58:40;8.90;99.90
13433;DHT22;6789;47.678;9.158;2023-03-03T15:04:01;9.10;99.90
13433;DHT22;6789;47.678;9.158;2023-03-03T15:09:30;9.30;99.90
13433;DHT22;6789;47.678;9.158;2023-03-03T15:14:48;9.20;99.90
13433;DHT22;6789;47.678;9.158;2023-03-03T15:30:52;9.10;99.90
13433;DHT22;6789;47.678;9.158;2023-03-03T15:36:25;9.20;99.90
13433;DHT22;6789;47.678;9.158;2023-03-03T15:53:07;9.30;99.90
13433;DHT22;6789;47.678;9.158;2023-03-03T15:59:03;9.40;99.90
13433;DHT22;6789;47.678;9.158;2023-03-03T16:04:27;9.20;99.90
13433;DHT22;6789;47.678;9.158;2023-03-03T16:31:35;8.50;99.90
13433;DHT22;6789;47.678;9.158;2023-03-03T16:53:24;8.20;99.90
13433;DHT22;6789;47.678;9.158;2023-03-03T16:58:58;8.10;99.90
13433;DHT22;6789;47.678;9.158;2023-03-03T17:04:39;8.10;99.90
13433;DHT22;6789;47.678;9.158;2023-03-03T17:10:25;8.10;99.90
13433;DHT22;6789;47.678;9.158;2023-03-03T17:21:31;8.00;99.90
13433;DHT22;6789;47.678;9.158;2023-03-03T17:50:38;7.70;99.90
13433;DHT22;6789;47.678;9.158;2023-03-03T18:14:37;7.40;99.90
13433;DHT22;6789;47.678;9.158;2023-03-03T18:25:03;7.30;99.90
13433;DHT22;6789;47.678;9.158;2023-03-03T18:45:50;7.10;99.90
13433;DHT22;6789;47.678;9.158;2023-03-03T18:50:48;7.10;99.90
13433;DHT22;6789;47.678;9.158;2023-03-03T18:55:58;7.10;99.90
13433;DHT22;6789;47.678;9.158;2023-03-03T19:11:50;7.10;99.90
13433;DHT22;6789;47.678;9.158;2023-03-03T19:16:46;7.00;99.90
13433;DHT22;6789;47.678;9.158;2023-03-03T19:21:47;7.00;99.90
13433;DHT22;6789;47.678;9.158;2023-03-03T19:43:33;6.90;99.90
13433;DHT22;6789;47.678;9.158;2023-03-03T20:25:55;6.60;99.90
13433;DHT22;6789;47.678;9.158;2023-03-03T20:36:59;6.50;99.90
13433;DHT22;6789;47.678;9.158;2023-03-03T20:42:32;6.50;99.90
13433;DHT22;6789;47.678;9.158;2023-03-03T20:53:31;6.50;99.90
13433;DHT22;6789;47.678;9.158;2023-03-03T20:59:20;6.40;99.90
13433;DHT22;6789;47.678;9.158;2023-03-03T21:04:30;6.30;99.90
13433;DHT22;6789;47.678;9.158;2023-03-03T21:09:38;6.30;99.90
13433;DHT22;6789;47.678;9.158;2023-03-03T21:15:00;6.30;99.90
13433;DHT22;6789;47.678;9.158;2023-03-03T21:20:17;6.30;99.90
13433;DHT22;6789;47.678;9.158;2023-03-03T21:30:33;6.20;99.90
13433;DHT22;6789;47.678;9.158;2023-03-03T21:35:56;6.20;99.90
13433;DHT22;6789;47.678;9.158;2023-03-03T21:41:05;6.20;99.90
13433;DHT22;6789;47.678;9.158;2023-03-03T21:46:16;6.20;99.90
13433;DHT22;6789;47.678;9.158;2023-03-03T21:51:24;6.20;99.90
13433;DHT22;6789;47.678;9.158;2023-03-03T21:56:21;6.20;99.90
13433;DHT22;6789;47.678;9.158;2023-03-03T22:01:15;6.30;99.90
13433;DHT22;6789;47.678;9.158;2023-03-03T22:06:21;6.30;99.90
13433;DHT22;6789;47.678;9.158;2023-03-03T22:11:28;6.20;99.90
13433;DHT22;6789;47.678;9.158;2023-03-03T22:16:34;6.10;99.90
13433;DHT22;6789;47.678;9.158;2023-03-03T22:21:40;6.10;99.90
13433;DHT22;6789;47.678;9.158;2023-03-03T22:26:46;6.10;99.90
13433;DHT22;6789;47.678;9.158;2023-03-03T22:31:38;6.10;99.90
13433;DHT22;6789;47.678;9.158;2023-03-03T22:36:44;6.00;99.90
13433;DHT22;6789;47.678;9.158;2023-03-03T22:41:44;6.00;99.90
13433;DHT22;6789;47.678;9.158;2023-03-03T22:46:49;6.00;99.90
13433;DHT22;6789;47.678;9.158;2023-03-03T22:51:55;5.90;99.90
13433;DHT22;6789;47.678;9.158;2023-03-03T22:56:53;5.80;99.90
13433;DHT22;6789;47.678;9.158;2023-03-03T23:02:02;5.70;99.90
13433;DHT22;6789;47.678;9.158;2023-03-03T23:07:08;5.60;99.90
13433;DHT22;6789;47.678;9.158;2023-03-03T23:12:14;5.50;99.90
13433;DHT22;6789;47.678;9.158;2023-03-03T23:17:08;5.40;99.90
13433;DHT22;6789;47.678;9.158;2023-03-03T23:22:15;5.20;99.90
13433;DHT22;6789;47.678;9.158;2023-03-03T23:27:21;5.10;99.90
13433;DHT22;6789;47.678;9.158;2023-03-03T23:32:27;4.90;99.90
13433;DHT22;6789;47.678;9.158;2023-03-03T23:37:33;4.80;99.90
13433;DHT22;6789;47.678;9.158;2023-03-03T23:42:39;4.80;99.90
13433;DHT22;6789;47.678;9.158;2023-03-03T23:47:46;4.60;99.90
13433;DHT22;6789;47.678;9.158;2023-03-03T23:52:57;4.30;99.90
13433;DHT22;6789;47.678;9.158;2023-03-03T23:58:04;4.00;99.90
